Time;durP1;ratioP1;P1;durP2;ratioP2;P2;SDS_P1;SDS_P2;PMS_P1;PMS_P2;Temp;Humidity;BMP_temperature;BMP_pressure;BME280_temperature;BME280_humidity;BME280_pressure;Samples;Min_cycle;Max_cycle;Signal;HPM_P1;HPM_P2
2024/02/05 00:01:04;;;;;;;8.07;7.87;;;20.90;57.40;;;;;;5040837;28;20515;-62
2024/02/05 00:03:31;;;;;;;6.00;5.90;;;20.90;57.60;;;;;;5044560;28;20936;-62
2024/02/05 00:05:57;;;;;;;5.97;5.77;;;20.90;57.50;;;;;;5045460;28;20942;-64
2024/02/05 00:08:24;;;;;;;5.90;5.73;;;20.90;57.50;;;;;;5042369;28;20948;-61
2024/02/05 00:10:51;;;;;;;6.00;5.90;;;20.90;57.50;;;;;;5042879;28;20915;-63
2024/02/05 00:13:19;;;;;;;6.00;5.90;;;20.90;57.50;;;;;;5046343;28;20464;-63
2024/02/05 00:15:48;;;;;;;6.50;6.40;;;20.90;57.50;;;;;;5046352;28;20448;-63
2024/02/05 00:18:15;;;;;;;5.90;5.80;;;20.90;57.50;;;;;;5042334;28;20851;-63
2024/02/05 00:20:42;;;;;;;6.00;5.80;;;20.80;57.40;;;;;;5042828;28;20485;-64
2024/02/05 00:23:09;;;;;;;6.20;6.00;;;20.80;57.40;;;;;;5045199;28;20451;-63
2024/02/05 00:25:37;;;;;;;6.90;6.70;;;20.90;57.50;;;;;;5046053;28;20472;-63
2024/02/05 00:28:04;;;;;;;6.10;6.00;;;20.90;57.50;;;;;;5036547;28;20528;-63
2024/02/05 00:30:31;;;;;;;7.13;6.93;;;20.90;57.40;;;;;;5046001;28;20491;-63
2024/02/05 00:33:00;;;;;;;6.10;5.90;;;20.80;57.40;;;;;;5044955;28;20479;-63
2024/02/05 00:35:27;;;;;;;6.47;5.97;;;20.80;57.40;;;;;;5042491;28;20479;-63
2024/02/05 00:37:54;;;;;;;5.90;5.80;;;20.80;57.40;;;;;;5042298;28;20472;-63
2024/02/05 00:40:22;;;;;;;6.33;6.13;;;20.80;57.40;;;;;;5045508;28;20476;-63
2024/02/05 00:42:48;;;;;;;5.57;5.47;;;20.70;57.40;;;;;;5045828;28;20948;-64
2024/02/05 00:45:15;;;;;;;6.93;6.27;;;20.70;57.50;;;;;;5042406;28;20437;-63
2024/02/05 00:47:42;;;;;;;6.30;6.10;;;20.70;57.50;;;;;;5036758;28;20965;-63
2024/02/05 00:50:11;;;;;;;6.57;6.20;;;20.70;57.50;;;;;;5043316;28;20902;-63
2024/02/05 00:52:38;;;;;;;6.20;6.10;;;20.70;57.60;;;;;;5045755;28;20891;-63
2024/02/05 00:55:05;;;;;;;5.97;5.80;;;20.70;57.60;;;;;;5043737;28;20579;-63
2024/02/05 00:57:32;;;;;;;6.53;6.33;;;20.70;57.70;;;;;;5038069;28;20945;-63
2024/02/05 01:00:01;;;;;;;6.90;6.70;;;20.60;57.60;;;;;;5040182;28;20519;-64
2024/02/05 01:02:28;;;;;;;7.10;6.70;;;20.70;57.70;;;;;;5045451;28;20455;-63
2024/02/05 01:04:56;;;;;;;7.30;7.03;;;20.60;57.60;;;;;;5045110;28;20472;-63
2024/02/05 01:07:24;;;;;;;7.40;7.20;;;20.60;57.60;;;;;;5041263;28;20449;-63
2024/02/05 01:09:51;;;;;;;6.50;6.40;;;20.60;57.60;;;;;;5041821;28;20477;-63
2024/02/05 01:12:18;;;;;;;7.10;6.80;;;20.60;57.70;;;;;;5044954;28;20977;-63
2024/02/05 01:14:45;;;;;;;6.87;6.67;;;20.60;57.70;;;;;;5043237;28;20594;-63
2024/02/05 01:17:12;;;;;;;6.93;6.73;;;20.60;57.70;;;;;;5042409;28;20444;-63
2024/02/05 01:19:39;;;;;;;8.00;7.27;;;20.60;57.70;;;;;;5041631;28;20524;-63
2024/02/05 01:22:06;;;;;;;6.80;6.60;;;20.50;57.70;;;;;;5043265;28;20507;-63
2024/02/05 01:24:34;;;;;;;6.63;6.33;;;20.60;57.80;;;;;;5042720;28;20819;-63
2024/02/05 01:27:02;;;;;;;7.00;6.80;;;20.60;57.80;;;;;;5039923;28;20475;-64
2024/02/05 01:29:28;;;;;;;7.00;6.80;;;20.60;57.80;;;;;;5044988;28;20506;-63
2024/02/05 01:31:55;;;;;;;7.23;7.03;;;20.50;57.70;;;;;;5044597;28;20492;-63
2024/02/05 01:34:22;;;;;;;6.90;6.73;;;20.60;57.80;;;;;;5037780;28;20492;-63
2024/02/05 01:36:49;;;;;;;7.50;7.27;;;20.50;57.70;;;;;;5041345;28;20473;-63
2024/02/05 01:39:18;;;;;;;7.00;6.80;;;20.50;57.70;;;;;;5044139;28;20460;-63
2024/02/05 01:41:47;;;;;;;7.10;6.90;;;20.50;57.70;;;;;;5044648;28;20460;-63
2024/02/05 01:44:14;;;;;;;7.30;7.00;;;20.50;57.70;;;;;;5039113;28;20485;-63
2024/02/05 01:46:41;;;;;;;7.47;7.17;;;20.50;57.70;;;;;;5040573;28;20469;-63
2024/02/05 01:49:10;;;;;;;6.60;6.37;;;20.50;57.80;;;;;;5043066;28;20810;-63
2024/02/05 01:51:44;;;;;;;7.60;7.30;;;20.50;57.80;;;;;;5044377;28;20456;-62
2024/02/05 01:54:13;;;;;;;7.00;6.80;;;20.50;57.70;;;;;;5041810;28;20854;-62
2024/02/05 01:56:41;;;;;;;6.50;6.30;;;20.40;57.60;;;;;;5044580;28;20533;-63
2024/02/05 01:59:10;;;;;;;7.17;6.97;;;20.40;57.70;;;;;;5042597;28;20496;-63
2024/02/05 02:01:40;;;;;;;6.43;6.33;;;20.40;57.70;;;;;;5040779;28;20945;-62
2024/02/05 02:04:07;;;;;;;7.60;7.40;;;20.50;57.70;;;;;;5041595;28;20449;-63
2024/02/05 02:06:36;;;;;;;8.20;7.40;;;20.40;57.70;;;;;;5044245;28;20448;-64
2024/02/05 02:09:05;;;;;;;7.60;7.30;;;20.40;57.80;;;;;;5043004;28;20444;-63
2024/02/05 02:11:32;;;;;;;7.93;7.63;;;20.40;57.80;;;;;;5040507;28;20461;-63
2024/02/05 02:13:58;;;;;;;7.60;7.30;;;20.40;57.80;;;;;;5035824;28;20951;-63
2024/02/05 02:16:30;;;;;;;8.10;7.80;;;20.40;57.80;;;;;;5040627;28;20849;-63
2024/02/05 02:19:00;;;;;;;7.30;6.90;;;20.40;57.90;;;;;;5039345;28;20450;-62
2024/02/05 02:21:30;;;;;;;7.37;7.00;;;20.40;57.80;;;;;;5043709;28;20476;-64
2024/02/05 02:23:58;;;;;;;6.57;6.47;;;20.40;57.80;;;;;;5043613;28;20841;-63
2024/02/05 02:26:26;;;;;;;7.10;6.90;;;20.40;57.90;;;;;;5040030;28;20583;-64
2024/02/05 02:28:53;;;;;;;7.60;7.17;;;20.40;57.90;;;;;;5039847;28;20449;-63
2024/02/05 02:31:23;;;;;;;7.40;7.00;;;20.40;57.90;;;;;;5043277;28;20490;-63
2024/02/05 02:33:59;;;;;;;7.60;7.40;;;20.40;57.90;;;;;;5043617;28;20472;-63
2024/02/05 02:36:30;;;;;;;7.07;6.87;;;20.40;57.90;;;;;;5032649;28;20476;-62
2024/02/05 02:39:05;;;;;;;7.23;7.03;;;20.40;58.00;;;;;;5039670;28;20505;-63
2024/02/05 02:41:35;;;;;;;7.30;7.10;;;20.30;57.90;;;;;;5033242;28;20476;-62
2024/02/05 02:44:03;;;;;;;8.70;8.40;;;20.30;57.90;;;;;;5040720;28;20477;-63
2024/02/05 02:46:31;;;;;;;8.63;7.57;;;20.30;58.10;;;;;;5043626;28;20476;-62
2024/02/05 02:48:58;;;;;;;7.90;7.57;;;20.30;58.00;;;;;;5040898;28;20859;-62
2024/02/05 02:51:25;;;;;;;6.93;6.83;;;20.30;57.90;;;;;;5043267;28;20495;-63
2024/02/05 02:53:52;;;;;;;8.57;8.33;;;20.30;57.90;;;;;;5043291;28;20467;-63
2024/02/05 02:56:20;;;;;;;8.20;7.90;;;20.30;58.00;;;;;;5040399;28;20469;-63
2024/02/05 02:58:47;;;;;;;7.73;7.00;;;20.30;58.00;;;;;;5039912;28;20960;-63
2024/02/05 03:01:14;;;;;;;7.90;7.50;;;20.30;57.90;;;;;;5041584;28;20930;-62
2024/02/05 03:03:41;;;;;;;7.70;7.10;;;20.30;58.00;;;;;;5043267;28;20472;-62
2024/02/05 03:06:08;;;;;;;7.37;7.10;;;20.30;58.00;;;;;;5041911;28;20440;-63
2024/02/05 03:08:35;;;;;;;8.00;7.70;;;20.30;58.00;;;;;;5039819;28;20449;-63
2024/02/05 03:11:02;;;;;;;7.60;7.40;;;20.30;58.00;;;;;;5038667;28;20496;-64
2024/02/05 03:13:30;;;;;;;7.77;7.47;;;20.30;58.00;;;;;;5043247;28;20443;-63
2024/02/05 03:15:58;;;;;;;7.37;7.17;;;20.30;58.10;;;;;;5043491;28;20472;-62
2024/02/05 03:18:25;;;;;;;7.03;6.77;;;20.20;58.00;;;;;;5031842;28;20449;-64
2024/02/05 03:20:52;;;;;;;7.57;7.33;;;20.30;58.00;;;;;;5038940;28;20508;-64
2024/02/05 03:23:19;;;;;;;7.27;6.80;;;20.20;57.90;;;;;;5042354;28;20503;-63
2024/02/05 03:25:46;;;;;;;7.23;7.07;;;20.30;58.00;;;;;;5043196;28;20472;-62
2024/02/05 03:28:13;;;;;;;6.87;6.77;;;20.20;57.90;;;;;;5040960;28;20444;-63
2024/02/05 03:30:42;;;;;;;7.63;7.13;;;20.30;58.00;;;;;;5030763;28;20461;-63
2024/02/05 03:33:09;;;;;;;6.87;6.67;;;20.30;58.00;;;;;;5040812;28;20477;-64
2024/02/05 03:35:37;;;;;;;7.80;7.60;;;20.20;58.00;;;;;;5043013;28;20468;-63
2024/02/05 03:38:04;;;;;;;7.77;7.37;;;20.20;58.00;;;;;;5043439;28;20444;-64
2024/02/05 03:40:31;;;;;;;7.67;7.17;;;20.20;58.00;;;;;;5039489;28;20515;-63
2024/02/05 03:42:58;;;;;;;7.00;6.80;;;20.20;57.90;;;;;;5046920;28;20476;-64
2024/02/05 03:45:25;;;;;;;7.23;7.03;;;20.20;58.00;;;;;;5035266;28;20979;-63
2024/02/05 03:47:53;;;;;;;6.90;6.60;;;20.20;58.00;;;;;;5043412;28;20445;-63
2024/02/05 03:50:20;;;;;;;6.97;6.67;;;20.20;58.00;;;;;;5045269;28;20467;-63
2024/02/05 03:52:47;;;;;;;8.13;7.57;;;20.20;58.00;;;;;;5046596;28;20444;-63
2024/02/05 03:55:15;;;;;;;7.30;7.10;;;20.20;58.10;;;;;;5044738;28;20472;-63
2024/02/05 03:57:43;;;;;;;9.77;9.20;;;20.20;58.10;;;;;;5043117;28;20444;-63
2024/02/05 04:00:11;;;;;;;7.20;7.10;;;20.20;58.10;;;;;;5043515;28;20480;-63
2024/02/05 04:02:39;;;;;;;7.90;7.70;;;20.20;58.10;;;;;;5046615;28;20455;-63
2024/02/05 04:05:08;;;;;;;8.03;7.83;;;20.20;58.10;;;;;;5045802;28;20808;-64
2024/02/05 04:07:35;;;;;;;8.07;7.60;;;20.20;58.10;;;;;;5042929;28;21011;-63
2024/02/05 04:10:02;;;;;;;7.63;7.33;;;20.20;58.10;;;;;;5042253;28;20484;-62
2024/02/05 04:12:29;;;;;;;7.90;7.53;;;20.20;58.20;;;;;;5046442;28;20869;-64
2024/02/05 04:14:56;;;;;;;7.77;7.50;;;20.20;58.00;;;;;;5046371;28;20462;-63
2024/02/05 04:17:24;;;;;;;7.00;6.80;;;20.20;58.00;;;;;;5043191;28;20995;-63
2024/02/05 04:19:51;;;;;;;8.07;7.67;;;20.20;58.10;;;;;;5042202;28;20788;-63
2024/02/05 04:22:20;;;;;;;8.00;7.70;;;20.20;58.10;;;;;;5044791;28;20511;-62
2024/02/05 04:24:47;;;;;;;7.90;7.60;;;20.20;58.00;;;;;;5046123;28;20444;-63
2024/02/05 04:27:14;;;;;;;9.10;8.80;;;20.10;58.00;;;;;;5044185;28;20476;-62
2024/02/05 04:29:41;;;;;;;7.33;7.13;;;20.10;58.00;;;;;;5042048;28;20519;-64
2024/02/05 04:32:08;;;;;;;8.67;8.13;;;20.10;58.00;;;;;;5043255;28;20503;-63
2024/02/05 04:34:35;;;;;;;7.30;7.00;;;20.10;58.00;;;;;;5045850;28;20950;-64
2024/02/05 04:37:02;;;;;;;8.20;7.77;;;20.10;58.00;;;;;;5045632;28;20951;-63
2024/02/05 04:39:30;;;;;;;8.53;8.13;;;20.10;58.10;;;;;;5041837;28;20469;-64
2024/02/05 04:41:57;;;;;;;8.50;8.00;;;20.10;58.10;;;;;;5042121;28;20516;-63
2024/02/05 04:44:24;;;;;;;8.10;7.90;;;20.10;58.10;;;;;;5045498;28;20495;-63
2024/02/05 04:46:51;;;;;;;8.90;8.40;;;20.10;58.00;;;;;;5045726;28;20476;-62
2024/02/05 04:49:19;;;;;;;7.60;7.40;;;20.10;58.10;;;;;;5042444;28;20479;-64
2024/02/05 04:51:49;;;;;;;9.27;8.40;;;20.10;58.00;;;;;;5042200;28;20457;-63
2024/02/05 04:54:16;;;;;;;9.60;9.20;;;20.00;58.00;;;;;;5043920;28;20445;-62
2024/02/05 04:56:45;;;;;;;7.70;7.50;;;20.10;58.20;;;;;;5045434;28;20444;-63
2024/02/05 04:59:12;;;;;;;8.73;8.43;;;20.10;58.40;;;;;;5043460;28;20506;-63
2024/02/05 05:01:39;;;;;;;9.10;8.63;;;20.10;58.50;;;;;;5041946;28;21010;-63
2024/02/05 05:04:06;;;;;;;9.53;9.20;;;20.10;58.60;;;;;;5042307;28;20932;-63
2024/02/05 05:06:33;;;;;;;10.20;9.77;;;20.10;58.60;;;;;;5045249;28;20886;-63
2024/02/05 05:09:00;;;;;;;8.83;8.53;;;20.10;58.70;;;;;;5044712;28;20476;-63
2024/02/05 05:11:26;;;;;;;8.60;8.40;;;20.10;58.80;;;;;;5041837;28;20500;-62
2024/02/05 05:13:55;;;;;;;9.27;8.97;;;20.00;58.80;;;;;;5041800;28;20527;-63
2024/02/05 05:16:22;;;;;;;8.83;8.63;;;20.10;58.80;;;;;;5044157;28;20445;-63
2024/02/05 05:18:49;;;;;;;8.47;8.17;;;20.10;59.40;;;;;;5044440;28;20992;-62
2024/02/05 05:21:16;;;;;;;8.97;8.57;;;20.10;58.90;;;;;;5043204;28;20524;-63
2024/02/05 05:23:43;;;;;;;8.83;8.37;;;20.10;59.00;;;;;;5041674;28;20476;-62
2024/02/05 05:26:10;;;;;;;7.53;7.23;;;20.10;59.10;;;;;;5041664;28;20451;-63
2024/02/05 05:28:40;;;;;;;8.73;8.00;;;20.10;59.10;;;;;;5045020;28;20444;-62
2024/02/05 05:31:08;;;;;;;8.47;7.87;;;20.10;59.20;;;;;;5044624;28;20453;-63
2024/02/05 05:33:36;;;;;;;8.40;8.10;;;20.10;59.60;;;;;;5041414;28;20453;-62
2024/02/05 05:36:04;;;;;;;8.97;8.60;;;20.10;59.20;;;;;;5040968;28;20468;-63
2024/02/05 05:38:30;;;;;;;8.67;8.30;;;20.10;59.20;;;;;;5039583;28;20844;-63
2024/02/05 05:40:57;;;;;;;8.17;7.67;;;20.10;59.30;;;;;;5041229;28;20517;-63
2024/02/05 05:43:24;;;;;;;10.63;9.70;;;20.10;59.60;;;;;;5043846;28;20472;-64
2024/02/05 05:45:51;;;;;;;18.30;11.13;;;20.10;61.10;;;;;;5044560;28;20476;-63
2024/02/05 05:48:19;;;;;;;19.47;12.67;;;20.10;64.00;;;;;;5042667;28;20480;-62
2024/02/05 05:50:46;;;;;;;15.87;14.57;;;20.20;67.20;;;;;;5041139;28;20874;-63
2024/02/05 05:53:13;;;;;;;17.97;15.60;;;20.20;70.10;;;;;;5042053;28;20480;-62
2024/02/05 05:55:41;;;;;;;20.70;12.47;;;20.20;74.20;;;;;;5047940;28;20975;-64
2024/02/05 05:58:08;;;;;;;13.53;12.13;;;20.20;77.80;;;;;;5040776;28;20498;-64
2024/02/05 06:00:35;;;;;;;20.70;11.80;;;20.20;77.10;;;;;;5033768;28;20896;-64
2024/02/05 06:03:02;;;;;;;16.50;12.60;;;20.20;78.80;;;;;;5042871;28;21003;-63
2024/02/05 06:05:30;;;;;;;16.03;13.50;;;20.20;79.40;;;;;;5040771;28;20441;-64
2024/02/05 06:07:57;;;;;;;17.47;13.30;;;20.20;80.10;;;;;;5040547;28;20484;-63
2024/02/05 06:10:24;;;;;;;17.33;13.53;;;20.20;79.00;;;;;;5043135;28;20508;-64
2024/02/05 06:12:51;;;;;;;14.17;12.40;;;20.20;77.90;;;;;;5037929;28;20955;-64
2024/02/05 06:15:18;;;;;;;22.53;13.70;;;20.20;77.00;;;;;;5040706;28;20472;-64
2024/02/05 06:17:45;;;;;;;19.00;10.83;;;20.20;76.20;;;;;;5037873;28;20478;-64
2024/02/05 06:20:12;;;;;;;17.10;10.00;;;20.10;75.50;;;;;;5035807;28;20866;-63
2024/02/05 06:22:40;;;;;;;12.73;11.73;;;20.20;74.60;;;;;;5047761;28;20508;-64
2024/02/05 06:25:07;;;;;;;12.20;11.17;;;20.10;73.90;;;;;;5040402;28;20816;-64
2024/02/05 06:27:34;;;;;;;12.03;10.80;;;20.10;73.70;;;;;;5036155;28;20468;-63
2024/02/05 06:30:02;;;;;;;12.77;11.57;;;20.10;73.10;;;;;;5036396;28;20807;-63
2024/02/05 06:32:29;;;;;;;14.00;11.90;;;20.10;72.60;;;;;;5048445;28;20437;-64
2024/02/05 06:34:56;;;;;;;11.07;10.20;;;20.10;71.90;;;;;;5047407;28;20479;-63
2024/02/05 06:37:23;;;;;;;11.70;10.57;;;20.10;71.50;;;;;;5033316;28;20952;-64
2024/02/05 06:39:51;;;;;;;12.83;11.00;;;20.10;71.00;;;;;;5040191;28;20483;-64
2024/02/05 06:42:19;;;;;;;13.23;11.70;;;20.10;70.70;;;;;;5041399;28;20512;-64
2024/02/05 06:44:47;;;;;;;11.50;10.73;;;20.10;70.10;;;;;;5043494;28;20498;-63
2024/02/05 06:47:14;;;;;;;13.00;11.80;;;20.00;69.60;;;;;;5050839;28;20852;-64
2024/02/05 06:49:41;;;;;;;16.10;12.27;;;20.10;69.50;;;;;;5036563;28;20448;-64
2024/02/05 06:52:08;;;;;;;11.90;11.00;;;20.10;69.10;;;;;;5043260;28;20491;-64
2024/02/05 06:54:34;;;;;;;12.00;10.83;;;20.10;68.40;;;;;;5040079;28;20469;-64
2024/02/05 06:57:03;;;;;;;11.23;10.13;;;20.10;68.00;;;;;;5039180;28;20476;-64
2024/02/05 06:59:30;;;;;;;12.07;11.30;;;20.10;67.60;;;;;;5040141;28;20879;-63
2024/02/05 07:01:57;;;;;;;11.23;10.23;;;20.10;67.00;;;;;;5038429;28;20508;-64
2024/02/05 07:04:24;;;;;;;11.17;10.40;;;20.10;66.70;;;;;;5043413;28;20468;-64
2024/02/05 07:06:50;;;;;;;10.80;10.20;;;20.10;66.50;;;;;;5051970;28;20476;-64
2024/02/05 07:09:17;;;;;;;11.33;10.50;;;20.10;66.20;;;;;;5051674;28;20476;-64
2024/02/05 07:11:45;;;;;;;12.33;11.83;;;20.00;65.80;;;;;;5051629;28;20472;-64
2024/02/05 07:14:13;;;;;;;10.83;10.17;;;20.10;65.60;;;;;;5051769;28;20476;-64
2024/02/05 07:16:40;;;;;;;11.97;10.97;;;20.10;65.40;;;;;;5051784;28;20468;-64
2024/02/05 07:19:07;;;;;;;11.40;10.50;;;20.00;65.20;;;;;;5051716;28;20483;-64
2024/02/05 07:21:34;;;;;;;11.10;10.47;;;20.10;65.40;;;;;;5051498;28;20907;-64
2024/02/05 07:24:01;;;;;;;14.73;13.57;;;20.00;65.10;;;;;;5051606;28;20864;-63
2024/02/05 07:26:29;;;;;;;11.40;10.60;;;20.00;65.00;;;;;;5051605;28;20444;-64
2024/02/05 07:28:56;;;;;;;11.20;10.70;;;20.00;64.80;;;;;;5051693;28;20440;-65
2024/02/05 07:31:24;;;;;;;13.30;12.40;;;20.00;64.60;;;;;;5051444;28;20496;-63
2024/02/05 07:33:51;;;;;;;12.37;11.33;;;20.00;64.20;;;;;;5051470;28;20475;-63
2024/02/05 07:36:18;;;;;;;10.93;10.27;;;20.00;64.10;;;;;;5051505;28;20468;-64
2024/02/05 07:38:45;;;;;;;12.00;11.40;;;20.00;63.90;;;;;;5051457;28;20475;-64
2024/02/05 07:41:12;;;;;;;11.90;11.40;;;20.00;63.80;;;;;;5051378;28;20539;-64
2024/02/05 07:43:39;;;;;;;16.80;12.07;;;20.00;63.50;;;;;;5051289;28;20955;-64
2024/02/05 07:46:08;;;;;;;13.37;11.80;;;19.90;63.40;;;;;;5051381;28;20440;-64
2024/02/05 07:48:36;;;;;;;11.77;11.17;;;19.90;63.30;;;;;;5051321;28;20491;-64
2024/02/05 07:51:04;;;;;;;11.47;10.67;;;19.90;63.00;;;;;;5051466;28;20495;-64
2024/02/05 07:53:31;;;;;;;12.60;11.90;;;19.90;62.90;;;;;;5051268;28;20511;-64
2024/02/05 07:55:57;;;;;;;10.90;10.53;;;19.90;62.60;;;;;;5051211;28;20467;-64
2024/02/05 07:58:24;;;;;;;11.70;11.10;;;19.90;62.50;;;;;;5051201;28;20464;-64
2024/02/05 08:00:51;;;;;;;10.83;10.43;;;19.90;62.30;;;;;;5051157;28;20495;-64
2024/02/05 08:03:18;;;;;;;11.50;10.70;;;19.90;62.20;;;;;;5051196;28;20516;-63
2024/02/05 08:05:46;;;;;;;10.83;10.13;;;19.90;61.90;;;;;;5051146;28;20861;-64
2024/02/05 08:08:13;;;;;;;10.47;9.87;;;19.90;61.80;;;;;;5050980;28;20444;-64
2024/02/05 08:10:40;;;;;;;11.83;11.30;;;19.90;61.70;;;;;;5050933;28;20504;-63
2024/02/05 08:13:07;;;;;;;12.03;11.43;;;19.90;61.40;;;;;;5051257;28;20494;-63
2024/02/05 08:15:34;;;;;;;11.33;10.93;;;19.90;61.20;;;;;;5051130;28;20476;-63
2024/02/05 08:18:01;;;;;;;11.13;10.40;;;19.90;61.00;;;;;;5051057;28;20483;-64
2024/02/05 08:20:28;;;;;;;11.63;10.77;;;19.90;60.80;;;;;;5050913;28;20872;-63
2024/02/05 08:22:56;;;;;;;11.03;10.63;;;19.90;60.80;;;;;;5050968;28;21022;-64
2024/02/05 08:25:24;;;;;;;10.97;10.53;;;19.90;60.60;;;;;;5054318;28;20467;-63
2024/02/05 08:27:51;;;;;;;12.23;11.93;;;19.90;60.50;;;;;;5054580;28;20452;-64
2024/02/05 08:30:18;;;;;;;12.50;11.70;;;19.90;60.40;;;;;;5054307;28;20475;-63
2024/02/05 08:32:45;;;;;;;11.53;10.90;;;19.90;60.30;;;;;;5054580;28;20436;-63
2024/02/05 08:35:12;;;;;;;11.80;11.40;;;19.90;60.20;;;;;;5054577;28;20467;-64
2024/02/05 08:37:39;;;;;;;11.27;10.77;;;19.90;60.10;;;;;;5054492;28;20474;-63
2024/02/05 08:40:09;;;;;;;11.97;11.47;;;19.90;60.10;;;;;;5054179;28;20818;-63
2024/02/05 08:42:37;;;;;;;11.53;11.23;;;19.90;60.00;;;;;;5054469;28;20929;-64
2024/02/05 08:45:05;;;;;;;11.70;11.30;;;19.90;59.90;;;;;;5054291;28;20468;-63
2024/02/05 08:47:32;;;;;;;11.53;11.13;;;19.90;59.80;;;;;;5054486;28;20494;-63
2024/02/05 08:49:59;;;;;;;12.50;11.87;;;19.80;59.80;;;;;;5054193;28;20974;-63
2024/02/05 08:52:26;;;;;;;12.07;11.67;;;19.90;59.90;;;;;;5054054;28;20484;-63
2024/02/05 08:54:53;;;;;;;11.67;11.27;;;19.80;59.80;;;;;;5054102;28;20539;-64
2024/02/05 08:57:21;;;;;;;12.20;11.80;;;19.80;59.80;;;;;;5054059;28;20444;-64
2024/02/05 08:59:50;;;;;;;11.37;11.07;;;19.80;59.80;;;;;;5054095;28;20860;-63
2024/02/05 09:02:18;;;;;;;12.37;11.77;;;19.80;59.70;;;;;;5053776;28;20480;-64
2024/02/05 09:04:45;;;;;;;12.87;11.67;;;19.80;59.80;;;;;;5053944;28;20440;-64
2024/02/05 09:07:12;;;;;;;11.83;11.33;;;19.80;59.70;;;;;;5053870;28;20440;-64
2024/02/05 09:09:39;;;;;;;12.33;11.63;;;19.80;59.70;;;;;;5053883;28;20466;-64
2024/02/05 09:12:07;;;;;;;11.47;11.17;;;19.80;59.50;;;;;;5053647;28;20507;-64
2024/02/05 09:14:36;;;;;;;13.00;12.30;;;19.80;59.50;;;;;;5053697;28;20526;-64
2024/02/05 09:17:03;;;;;;;12.20;11.70;;;19.80;59.50;;;;;;5053574;28;20502;-63
2024/02/05 09:19:30;;;;;;;11.70;11.30;;;19.80;59.40;;;;;;5053859;28;20459;-63
2024/02/05 09:21:57;;;;;;;12.40;11.70;;;19.80;59.40;;;;;;5053575;28;20491;-64
2024/02/05 09:24:24;;;;;;;10.93;10.57;;;19.80;59.40;;;;;;5053636;28;20509;-63
2024/02/05 09:26:51;;;;;;;12.13;11.10;;;19.80;59.30;;;;;;5053704;28;20467;-64
2024/02/05 09:29:18;;;;;;;12.23;11.80;;;19.80;59.20;;;;;;5053485;28;20440;-64
2024/02/05 09:31:46;;;;;;;11.10;10.60;;;19.80;59.10;;;;;;5053666;28;20491;-63
2024/02/05 09:34:14;;;;;;;11.80;11.30;;;19.80;59.00;;;;;;5053338;28;20452;-64
2024/02/05 09:36:41;;;;;;;11.90;11.00;;;19.80;59.00;;;;;;5052445;28;20931;-64
2024/02/05 09:39:09;;;;;;;11.77;11.17;;;19.80;58.90;;;;;;5053372;28;20489;-64
2024/02/05 09:41:36;;;;;;;11.83;11.43;;;19.80;58.90;;;;;;5053111;28;20878;-63
2024/02/05 09:44:04;;;;;;;11.33;10.83;;;19.80;58.90;;;;;;5053384;28;20516;-64
2024/02/05 09:46:34;;;;;;;10.87;10.57;;;19.80;58.80;;;;;;5053456;28;20440;-63
2024/02/05 09:49:04;;;;;;;11.30;10.90;;;19.80;58.80;;;;;;5053446;28;20444;-63
2024/02/05 09:51:33;;;;;;;12.50;11.97;;;19.80;58.70;;;;;;5053159;28;20495;-64
2024/02/05 09:54:01;;;;;;;12.27;11.47;;;19.80;58.70;;;;;;5052873;28;20519;-63
2024/02/05 09:56:31;;;;;;;11.80;11.17;;;19.80;59.20;;;;;;5052819;28;20476;-63
2024/02/05 09:58:58;;;;;;;10.63;10.27;;;19.80;58.60;;;;;;5052855;28;20472;-64
2024/02/05 10:01:26;;;;;;;11.20;10.80;;;19.80;58.50;;;;;;5052800;28;20460;-64
2024/02/05 10:03:54;;;;;;;11.50;10.83;;;19.80;58.50;;;;;;5052886;28;20486;-63
2024/02/05 10:06:25;;;;;;;11.13;10.73;;;19.80;58.50;;;;;;5052693;28;20447;-64
2024/02/05 10:08:57;;;;;;;11.67;11.27;;;19.80;59.00;;;;;;5052668;28;20432;-64
2024/02/05 10:11:26;;;;;;;12.07;11.47;;;19.70;58.30;;;;;;5052410;28;20499;-63
2024/02/05 10:13:53;;;;;;;11.40;10.90;;;19.70;58.30;;;;;;5052361;28;20518;-64
2024/02/05 10:16:20;;;;;;;12.43;11.93;;;19.70;58.20;;;;;;5052617;28;20440;-64
2024/02/05 10:18:47;;;;;;;12.13;11.63;;;19.70;58.10;;;;;;5052600;28;20479;-64
2024/02/05 10:21:13;;;;;;;11.83;11.33;;;19.70;58.10;;;;;;5052611;28;20498;-64
2024/02/05 10:23:43;;;;;;;11.60;11.20;;;19.70;58.20;;;;;;5052466;28;20946;-64
2024/02/05 10:26:13;;;;;;;10.80;10.43;;;19.70;58.20;;;;;;5052390;28;20440;-63
2024/02/05 10:28:39;;;;;;;12.60;11.80;;;19.70;58.20;;;;;;5052291;28;20877;-64
2024/02/05 10:31:08;;;;;;;11.77;11.17;;;19.70;58.10;;;;;;5052314;28;20507;-63
2024/02/05 10:33:35;;;;;;;11.50;10.80;;;19.70;58.10;;;;;;5052416;28;20474;-64
2024/02/05 10:36:02;;;;;;;10.70;10.40;;;19.70;58.10;;;;;;5052475;28;20472;-64
2024/02/05 10:38:29;;;;;;;11.80;11.30;;;19.70;58.10;;;;;;5052137;28;20478;-64
2024/02/05 10:40:57;;;;;;;12.43;11.93;;;19.70;58.20;;;;;;5052363;28;20498;-64
2024/02/05 10:43:27;;;;;;;11.40;11.00;;;19.60;58.20;;;;;;5052345;28;20511;-64
2024/02/05 10:45:57;;;;;;;11.37;10.87;;;19.70;58.10;;;;;;5051985;28;20482;-64
2024/02/05 10:48:25;;;;;;;10.97;10.67;;;19.70;58.00;;;;;;5052108;28;20479;-64
2024/02/05 10:50:52;;;;;;;10.60;10.10;;;19.70;58.00;;;;;;5051887;28;20488;-63
2024/02/05 10:53:19;;;;;;;11.30;10.90;;;19.70;57.90;;;;;;5052035;28;20468;-64
2024/02/05 10:55:46;;;;;;;12.83;12.17;;;19.70;57.80;;;;;;5051945;28;20476;-64
2024/02/05 10:58:16;;;;;;;11.00;10.60;;;19.70;57.90;;;;;;5051716;28;20497;-64
2024/02/05 11:00:44;;;;;;;10.70;10.30;;;19.70;57.70;;;;;;5052037;28;20498;-64
2024/02/05 11:03:13;;;;;;;11.80;11.40;;;19.70;57.70;;;;;;5051741;28;20810;-64
2024/02/05 11:05:41;;;;;;;12.10;11.40;;;19.70;57.70;;;;;;5051619;28;20510;-64
2024/02/05 11:08:12;;;;;;;12.27;11.67;;;19.70;57.60;;;;;;5051860;28;20436;-64
2024/02/05 11:10:44;;;;;;;11.37;10.97;;;19.70;57.60;;;;;;5051410;28;20507;-63
2024/02/05 11:13:17;;;;;;;13.00;12.10;;;19.70;57.50;;;;;;5051665;28;20440;-64
2024/02/05 11:15:45;;;;;;;11.93;11.23;;;19.70;57.50;;;;;;5051965;28;21014;-64
2024/02/05 11:18:16;;;;;;;12.70;12.10;;;19.70;57.50;;;;;;5052029;28;20476;-64
2024/02/05 11:20:45;;;;;;;12.17;11.67;;;19.70;57.50;;;;;;5051937;28;20507;-64
2024/02/05 11:23:14;;;;;;;12.10;11.50;;;19.70;57.50;;;;;;5051826;28;20531;-64
2024/02/05 11:25:41;;;;;;;11.30;10.90;;;19.70;57.50;;;;;;5051629;28;20446;-64
2024/02/05 11:28:10;;;;;;;11.70;11.20;;;19.70;57.40;;;;;;5051836;28;20468;-63
2024/02/05 11:30:42;;;;;;;11.47;10.97;;;19.70;57.40;;;;;;5051522;28;20471;-64
2024/02/05 11:33:09;;;;;;;10.73;10.43;;;19.70;57.40;;;;;;5051680;28;20436;-63
2024/02/05 11:35:36;;;;;;;11.70;11.30;;;19.70;57.40;;;;;;5051802;28;20943;-64
2024/02/05 11:38:06;;;;;;;12.00;11.60;;;19.70;57.30;;;;;;5051773;28;20467;-64
2024/02/05 11:40:33;;;;;;;12.93;12.33;;;19.70;57.20;;;;;;5051407;28;20467;-64
2024/02/05 11:43:04;;;;;;;11.30;10.77;;;19.70;57.20;;;;;;5051593;28;20884;-63
2024/02/05 11:45:32;;;;;;;11.70;11.27;;;19.70;57.20;;;;;;5051478;28;20444;-64
2024/02/05 11:48:01;;;;;;;11.30;10.70;;;19.70;57.20;;;;;;5051474;28;20810;-64
2024/02/05 11:50:28;;;;;;;12.20;11.50;;;19.70;57.20;;;;;;5051213;28;20456;-64
2024/02/05 11:52:56;;;;;;;13.43;12.93;;;19.70;57.30;;;;;;5051395;28;20432;-63
2024/02/05 11:55:25;;;;;;;11.97;11.33;;;19.70;57.10;;;;;;5051494;28;20472;-63
2024/02/05 11:57:52;;;;;;;11.33;10.90;;;19.70;57.10;;;;;;5051390;28;20446;-63
2024/02/05 12:00:19;;;;;;;12.00;11.60;;;19.70;57.10;;;;;;5054476;28;20443;-64
2024/02/05 12:02:47;;;;;;;11.70;11.13;;;19.70;57.10;;;;;;5055130;28;20813;-64
2024/02/05 12:05:17;;;;;;;10.90;10.60;;;19.70;57.10;;;;;;5055146;28;20444;-63
2024/02/05 12:07:44;;;;;;;12.00;11.70;;;19.70;57.10;;;;;;5055075;28;20440;-63
2024/02/05 12:10:12;;;;;;;11.07;10.67;;;19.70;57.20;;;;;;5054853;28;20476;-63
2024/02/05 12:12:40;;;;;;;12.10;11.30;;;19.70;57.20;;;;;;5054984;28;20452;-64
2024/02/05 12:15:18;;;;;;;10.70;10.30;;;19.70;57.20;;;;;;5054569;28;20475;-64
2024/02/05 12:17:45;;;;;;;12.53;12.03;;;19.70;57.30;;;;;;5054737;28;20443;-64
2024/02/05 12:20:21;;;;;;;12.27;11.77;;;19.70;57.20;;;;;;5054523;28;20440;-64
2024/02/05 12:22:49;;;;;;;13.20;12.73;;;19.70;57.10;;;;;;5054457;28;20864;-63
2024/02/05 12:25:16;;;;;;;12.77;11.87;;;19.70;57.20;;;;;;5054407;28;20479;-64
2024/02/05 12:27:43;;;;;;;12.37;11.90;;;19.70;57.20;;;;;;5054397;28;20440;-63
2024/02/05 12:30:11;;;;;;;11.70;11.30;;;19.70;57.10;;;;;;5054245;28;20784;-64
2024/02/05 12:32:38;;;;;;;12.07;11.70;;;19.70;57.10;;;;;;5054186;28;20478;-64
2024/02/05 12:35:06;;;;;;;11.40;10.80;;;19.70;57.00;;;;;;5054271;28;20935;-63
2024/02/05 12:37:34;;;;;;;11.70;11.40;;;19.70;57.00;;;;;;5054131;28;20952;-64